createdAt,value
2022-12-16T00:01:09.278Z,31.48
2022-12-16T00:03:36.355Z,32.90
2022-12-16T00:06:04.455Z,33.00
2022-12-16T00:08:36.444Z,32.47
2022-12-16T00:11:03.566Z,34.15
2022-12-16T00:13:32.205Z,33.17
2022-12-16T00:15:59.320Z,33.15
2022-12-16T00:18:26.062Z,33.55
2022-12-16T00:20:53.726Z,31.58
2022-12-16T00:23:22.384Z,30.60
2022-12-16T00:25:49.075Z,30.75
2022-12-16T00:28:16.544Z,29.30
2022-12-16T00:30:43.831Z,30.85
2022-12-16T00:33:10.257Z,30.85
2022-12-16T00:35:39.473Z,29.85
2022-12-16T00:38:09.648Z,30.23
2022-12-16T00:40:36.316Z,30.30
2022-12-16T00:43:02.883Z,29.92
2022-12-16T00:45:29.913Z,30.27
2022-12-16T00:47:56.413Z,29.98
2022-12-16T00:50:22.792Z,32.20
2022-12-16T00:52:49.293Z,32.58
2022-12-16T00:55:17.974Z,31.00
2022-12-16T00:57:44.537Z,30.08
2022-12-16T01:00:13.111Z,30.60
2022-12-16T01:02:41.164Z,31.50
2022-12-16T01:05:10.138Z,31.85
2022-12-16T01:07:36.649Z,32.13
2022-12-16T01:10:04.445Z,30.23
2022-12-16T01:12:30.914Z,32.38
2022-12-16T01:14:57.544Z,32.42
2022-12-16T01:17:26.009Z,31.63
2022-12-16T01:19:53.079Z,30.60
2022-12-16T01:22:20.959Z,31.20
2022-12-16T01:24:47.498Z,30.95
2022-12-16T01:27:15.310Z,30.75
2022-12-16T01:29:42.357Z,30.48
2022-12-16T01:32:13.466Z,30.75
2022-12-16T01:34:40.397Z,31.05
2022-12-16T01:37:06.785Z,31.63
2022-12-16T01:39:33.199Z,32.40
2022-12-16T01:41:59.577Z,32.78
2022-12-16T01:44:26.634Z,32.15
2022-12-16T01:47:03.566Z,32.75
2022-12-16T01:49:37.587Z,33.08
2022-12-16T01:52:06.099Z,31.42
2022-12-16T01:54:40.149Z,33.47
2022-12-16T01:57:12.456Z,34.10
2022-12-16T02:02:06.012Z,32.10
2022-12-16T02:04:32.892Z,32.10
2022-12-16T02:07:00.509Z,33.85
2022-12-16T02:09:27.118Z,33.67
2022-12-16T02:11:53.434Z,35.15
2022-12-16T02:14:59.043Z,33.95
2022-12-16T02:17:38.085Z,34.47
2022-12-16T02:20:33.230Z,32.67
2022-12-16T02:23:23.827Z,32.80
2022-12-16T02:26:20.477Z,31.70
2022-12-16T02:28:58.557Z,30.85
2022-12-16T02:31:39.055Z,30.85
2022-12-16T02:34:10.661Z,32.40
2022-12-16T02:36:57.026Z,31.33
2022-12-16T02:39:40.958Z,32.55
2022-12-16T02:42:17.283Z,31.98
2022-12-16T02:45:08.367Z,29.95
2022-12-16T02:47:34.809Z,29.77
2022-12-16T02:50:01.292Z,30.30
2022-12-16T02:52:29.980Z,30.67
2022-12-16T02:55:05.131Z,30.00
2022-12-16T02:57:53.805Z,30.40
2022-12-16T03:00:22.165Z,31.58
2022-12-16T03:03:02.042Z,32.38
2022-12-16T03:05:28.447Z,32.90
2022-12-16T03:07:56.773Z,32.60
2022-12-16T03:10:27.189Z,31.00
2022-12-16T03:12:54.425Z,31.17
2022-12-16T03:15:23.577Z,30.95
2022-12-16T03:17:50.911Z,32.33
2022-12-16T03:20:40.884Z,30.88
2022-12-16T03:23:15.256Z,30.65
2022-12-16T03:25:43.516Z,33.10
2022-12-16T03:28:26.817Z,30.58
2022-12-16T03:31:03.588Z,30.67
2022-12-16T03:33:35.508Z,30.92
2022-12-16T03:36:06.858Z,30.85
2022-12-16T03:38:33.721Z,30.02
2022-12-16T03:41:01.019Z,30.58
2022-12-16T03:43:27.665Z,30.63
2022-12-16T03:45:57.313Z,31.35
2022-12-16T03:48:25.765Z,30.90
2022-12-16T03:50:52.175Z,31.15
2022-12-16T03:53:18.620Z,31.08
2022-12-16T03:55:45.108Z,30.52
2022-12-16T03:58:11.473Z,31.02
2022-12-16T04:00:37.870Z,31.25
2022-12-16T04:03:04.522Z,30.88
2022-12-16T04:05:31.147Z,31.70
2022-12-16T04:08:01.759Z,32.03
2022-12-16T04:10:46.950Z,30.65
2022-12-16T04:13:32.105Z,31.30
2022-12-16T04:16:17.583Z,28.88
2022-12-16T04:19:02.480Z,29.98
2022-12-16T04:21:47.500Z,30.15
2022-12-16T04:24:19.512Z,28.63
2022-12-16T04:27:09.260Z,29.13
2022-12-16T04:29:59.974Z,29.95
2022-12-16T04:32:26.657Z,28.98
2022-12-16T04:34:53.250Z,30.05
2022-12-16T04:37:38.003Z,30.02
2022-12-16T04:40:23.263Z,29.73
2022-12-16T04:43:08.562Z,29.48
2022-12-16T04:45:54.095Z,29.65
2022-12-16T04:48:38.821Z,27.50
2022-12-16T04:51:23.944Z,28.10
2022-12-16T04:54:08.671Z,27.75
2022-12-16T04:56:53.450Z,27.38
2022-12-16T04:59:38.336Z,27.63
2022-12-16T05:02:23.489Z,26.67
2022-12-16T05:05:08.364Z,26.95
2022-12-16T05:07:57.893Z,27.15
2022-12-16T05:10:42.657Z,26.20
2022-12-16T05:13:27.529Z,27.10
2022-12-16T05:16:12.532Z,26.05
2022-12-16T05:18:57.389Z,27.02
2022-12-16T05:21:42.201Z,26.15
2022-12-16T05:24:27.636Z,26.65
2022-12-16T05:27:12.697Z,26.90
2022-12-16T05:29:57.745Z,27.42
2022-12-16T05:32:42.837Z,26.52
2022-12-16T05:35:27.625Z,25.65
2022-12-16T05:38:12.460Z,26.58
2022-12-16T05:40:57.167Z,26.67
2022-12-16T05:43:42.074Z,27.58
2022-12-16T05:46:27.945Z,27.48
2022-12-16T05:49:13.183Z,28.90
2022-12-16T05:51:57.902Z,30.33
2022-12-16T05:54:42.560Z,30.75
2022-12-16T05:57:27.646Z,30.25
2022-12-16T06:00:12.521Z,30.33
2022-12-16T06:02:57.481Z,33.30
2022-12-16T06:05:42.686Z,30.95
2022-12-16T06:08:27.520Z,32.05
2022-12-16T06:11:12.383Z,31.63
2022-12-16T06:13:57.281Z,32.38
2022-12-16T06:16:42.136Z,30.52
2022-12-16T06:19:27.301Z,31.27
2022-12-16T06:22:12.171Z,33.40
2022-12-16T06:24:57.063Z,32.17
2022-12-16T06:27:42.048Z,32.35
2022-12-16T06:30:27.645Z,30.17
2022-12-16T06:33:12.327Z,30.88
2022-12-16T06:35:57.339Z,29.52
2022-12-16T06:38:42.346Z,29.35
2022-12-16T06:41:27.190Z,28.50
2022-12-16T06:44:11.901Z,28.13
2022-12-16T06:46:56.811Z,29.17
2022-12-16T06:49:41.517Z,28.58
2022-12-16T06:52:26.585Z,29.00
2022-12-16T06:55:11.496Z,32.13
2022-12-16T06:57:56.650Z,32.00
2022-12-16T07:00:41.575Z,32.58
2022-12-16T07:03:26.527Z,33.78
2022-12-16T07:06:12.459Z,35.30
2022-12-16T07:08:57.596Z,38.55
2022-12-16T07:11:42.710Z,37.50
2022-12-16T07:14:27.730Z,36.75
2022-12-16T07:17:32.587Z,35.70
2022-12-16T07:20:17.880Z,34.88
2022-12-16T07:23:11.835Z,32.85
2022-12-16T07:26:01.037Z,35.55
2022-12-16T07:28:45.684Z,36.08
2022-12-16T07:31:30.570Z,32.95
2022-12-16T07:34:15.412Z,32.38
2022-12-16T07:37:00.509Z,31.85
2022-12-16T07:39:48.726Z,32.17
2022-12-16T07:42:36.156Z,32.70
2022-12-16T07:45:21.130Z,32.83
2022-12-16T07:48:07.447Z,30.25
2022-12-16T07:50:52.542Z,31.77
2022-12-16T07:53:38.751Z,32.15
2022-12-16T07:56:24.678Z,32.03
2022-12-16T07:59:09.912Z,32.83
2022-12-16T08:01:55.344Z,33.00
2022-12-16T08:04:40.523Z,32.65
2022-12-16T08:07:25.411Z,32.92
2022-12-16T08:10:10.437Z,33.25
2022-12-16T08:12:55.442Z,33.50
2022-12-16T08:15:40.554Z,32.25
2022-12-16T08:18:25.668Z,31.15
2022-12-16T08:21:11.192Z,31.95
2022-12-16T08:23:56.273Z,31.38
2022-12-16T08:26:41.544Z,31.65
2022-12-16T08:29:43.819Z,30.05
2022-12-16T08:32:29.639Z,29.50
2022-12-16T08:35:14.911Z,30.58
2022-12-16T08:37:59.959Z,31.15
2022-12-16T08:40:45.178Z,29.52
2022-12-16T08:43:30.364Z,31.02
2022-12-16T08:46:15.742Z,30.02
2022-12-16T08:49:00.738Z,29.88
2022-12-16T08:51:46.155Z,31.10
2022-12-16T08:54:31.191Z,31.45
2022-12-16T08:57:16.602Z,32.55
2022-12-16T09:00:01.963Z,34.15
2022-12-16T09:02:46.864Z,35.70
2022-12-16T09:05:32.195Z,36.70
2022-12-16T09:08:20.759Z,38.75
2022-12-16T09:11:05.751Z,38.33
2022-12-16T09:13:50.788Z,37.88
2022-12-16T09:16:36.472Z,40.72
2022-12-16T09:19:21.467Z,38.97
2022-12-16T09:22:06.592Z,39.33
2022-12-16T09:24:51.409Z,41.10
2022-12-16T09:27:36.442Z,42.28
2022-12-16T09:30:21.350Z,43.45
2022-12-16T09:33:06.473Z,41.70
2022-12-16T09:35:51.215Z,41.00
2022-12-16T09:38:36.151Z,41.15
2022-12-16T09:41:45.511Z,42.85
2022-12-16T09:45:02.518Z,43.50
2022-12-16T09:47:59.430Z,40.58
2022-12-16T09:50:45.398Z,40.10
2022-12-16T09:53:33.791Z,38.33
2022-12-16T09:56:21.824Z,36.97
2022-12-16T09:59:14.549Z,38.20
2022-12-16T10:01:59.784Z,40.38
2022-12-16T10:04:44.777Z,39.92
2022-12-16T10:07:40.460Z,41.08
2022-12-16T10:10:41.719Z,42.92
2022-12-16T10:13:38.440Z,41.28
2022-12-16T10:16:39.720Z,43.67
2022-12-16T10:19:56.245Z,46.53
2022-12-16T10:22:52.403Z,49.25
2022-12-16T10:25:48.705Z,48.13
2022-12-16T10:28:37.292Z,51.65
2022-12-16T10:31:31.817Z,51.42
2022-12-16T10:34:17.351Z,52.40
2022-12-16T10:37:07.448Z,53.63
2022-12-16T10:39:59.725Z,54.70
2022-12-16T10:42:47.149Z,53.75
2022-12-16T10:45:49.010Z,54.75
2022-12-16T10:48:43.821Z,55.88
2022-12-16T10:51:36.916Z,55.10
2022-12-16T10:55:02.174Z,53.58
2022-12-16T10:57:58.145Z,52.95
2022-12-16T11:01:05.830Z,59.85
2022-12-16T11:03:52.912Z,57.88
2022-12-16T11:06:54.420Z,58.70
2022-12-16T11:09:45.369Z,57.63
2022-12-16T11:12:47.979Z,54.72
2022-12-16T11:15:46.472Z,49.40
2022-12-16T11:18:36.830Z,46.55
2022-12-16T11:21:36.352Z,46.50
2022-12-16T11:24:37.496Z,44.70
2022-12-16T11:27:53.434Z,44.92
2022-12-16T11:30:40.770Z,43.92
2022-12-16T11:33:42.123Z,42.88
2022-12-16T11:36:37.363Z,42.33
2022-12-16T11:39:23.057Z,37.50
2022-12-16T11:42:09.185Z,37.10
2022-12-16T11:45:07.363Z,36.85
2022-12-16T11:48:14.498Z,33.17
2022-12-16T11:51:15.815Z,34.63
2022-12-16T11:54:09.997Z,34.85
2022-12-16T11:56:57.656Z,33.13
2022-12-16T12:00:09.436Z,34.40
2022-12-16T12:03:07.430Z,34.78
2022-12-16T12:05:59.398Z,33.53
2022-12-16T12:08:48.925Z,36.20
2022-12-16T12:11:44.005Z,39.03
2022-12-16T12:14:54.604Z,38.97
2022-12-16T12:17:57.622Z,40.80
2022-12-16T12:21:13.427Z,43.40
2022-12-16T12:23:58.515Z,40.70
2022-12-16T12:26:49.719Z,40.70
2022-12-16T12:29:59.874Z,40.80
2022-12-16T12:32:50.356Z,40.20
2022-12-16T12:35:59.648Z,39.30
2022-12-16T12:39:03.649Z,38.17
2022-12-16T12:42:07.570Z,40.53
2022-12-16T12:45:04.726Z,40.85
2022-12-16T12:47:51.675Z,40.75
2022-12-16T12:50:50.245Z,41.60
2022-12-16T12:53:54.096Z,40.15
2022-12-16T12:56:58.155Z,40.05
2022-12-16T12:59:48.133Z,38.83
2022-12-16T13:02:37.602Z,41.97
2022-12-16T13:05:24.699Z,39.60
2022-12-16T13:08:10.211Z,39.88
2022-12-16T13:10:56.511Z,37.55
2022-12-16T13:13:52.290Z,35.00
2022-12-16T13:17:02.467Z,32.42
2022-12-16T13:19:47.155Z,32.25
2022-12-16T13:22:53.281Z,32.15
2022-12-16T13:25:50.719Z,31.08
2022-12-16T13:28:55.679Z,30.67
2022-12-16T13:31:41.104Z,32.42
2022-12-16T13:34:41.182Z,32.22
2022-12-16T13:37:39.958Z,35.33
2022-12-16T13:40:45.264Z,35.65
2022-12-16T13:44:15.106Z,33.50
2022-12-16T13:47:11.890Z,31.73
2022-12-16T13:50:07.169Z,32.38
2022-12-16T13:53:13.557Z,32.88
2022-12-16T13:56:11.570Z,30.70
2022-12-16T13:58:59.938Z,30.42
2022-12-16T14:02:02.534Z,33.58
2022-12-16T14:04:52.024Z,35.05
2022-12-16T14:07:37.597Z,34.80
2022-12-16T14:10:23.707Z,35.40
2022-12-16T14:13:14.155Z,36.58
2022-12-16T14:16:31.264Z,38.17
2022-12-16T14:19:53.891Z,37.50
2022-12-16T14:22:57.313Z,38.50
2022-12-16T14:25:43.069Z,38.72
2022-12-16T14:28:50.480Z,38.00
2022-12-16T14:31:49.161Z,39.75
2022-12-16T14:34:42.201Z,41.35
2022-12-16T14:37:40.717Z,40.55
2022-12-16T14:40:49.031Z,39.85
2022-12-16T14:43:39.168Z,41.97
2022-12-16T14:46:24.827Z,41.10
2022-12-16T14:49:09.932Z,45.53
2022-12-16T14:51:57.005Z,44.22
2022-12-16T14:54:53.803Z,43.55
2022-12-16T14:57:40.186Z,40.92
2022-12-16T15:00:28.112Z,41.65
2022-12-16T15:03:15.179Z,41.75
2022-12-16T15:06:01.502Z,39.53
2022-12-16T15:08:48.663Z,40.28
2022-12-16T15:11:36.850Z,42.55
2022-12-16T15:14:22.438Z,41.03
2022-12-16T15:17:08.842Z,42.10
2022-12-16T15:20:04.068Z,41.03
2022-12-16T15:22:49.326Z,41.25
2022-12-16T15:25:42.378Z,40.22
2022-12-16T15:28:55.886Z,39.40
2022-12-16T15:32:03.914Z,39.35
2022-12-16T15:35:07.958Z,39.10
2022-12-16T15:38:03.801Z,40.58
2022-12-16T15:40:50.613Z,41.70
2022-12-16T15:43:40.814Z,41.90
2022-12-16T15:46:35.004Z,40.10
2022-12-16T15:49:20.018Z,41.95
2022-12-16T15:52:06.180Z,48.60
2022-12-16T15:54:51.336Z,50.33
2022-12-16T15:57:45.148Z,52.83
2022-12-16T16:01:02.771Z,51.55
2022-12-16T16:03:49.516Z,50.50
2022-12-16T16:06:41.275Z,47.58
2022-12-16T16:09:43.333Z,45.25
2022-12-16T16:12:29.190Z,42.50
2022-12-16T16:15:14.225Z,42.90
2022-12-16T16:17:59.677Z,40.72
2022-12-16T16:20:44.718Z,39.80
2022-12-16T16:23:30.172Z,39.60
2022-12-16T16:26:15.420Z,43.25
2022-12-16T16:29:00.535Z,43.15
2022-12-16T16:31:45.619Z,45.08
2022-12-16T16:34:30.931Z,50.20
2022-12-16T16:37:16.831Z,53.60
2022-12-16T16:40:02.685Z,54.80
2022-12-16T16:42:47.775Z,57.30
2022-12-16T16:45:32.853Z,57.45
2022-12-16T16:48:24.901Z,56.70
2022-12-16T16:51:14.524Z,55.03
2022-12-16T16:53:59.663Z,52.45
2022-12-16T16:56:44.871Z,50.80
2022-12-16T16:59:31.027Z,49.30
2022-12-16T17:02:16.467Z,48.60
2022-12-16T17:05:01.511Z,49.95
2022-12-16T17:07:52.111Z,48.72
2022-12-16T17:10:38.527Z,47.30
2022-12-16T17:13:31.584Z,47.00
2022-12-16T17:16:16.688Z,47.50
2022-12-16T17:19:01.448Z,45.60
2022-12-16T17:21:46.716Z,42.95
2022-12-16T17:24:32.013Z,41.92
2022-12-16T17:27:17.047Z,45.10
2022-12-16T17:30:02.335Z,43.92
2022-12-16T17:32:47.502Z,39.28
2022-12-16T17:35:32.561Z,38.97
2022-12-16T17:38:17.671Z,35.45
2022-12-16T17:41:02.500Z,35.17
2022-12-16T17:43:47.325Z,35.53
2022-12-16T17:46:32.361Z,34.15
2022-12-16T17:49:17.741Z,31.88
2022-12-16T17:52:03.390Z,31.45
2022-12-16T17:54:48.231Z,32.03
2022-12-16T17:57:33.316Z,32.78
2022-12-16T18:00:18.268Z,34.40
2022-12-16T18:03:03.664Z,33.97
2022-12-16T18:05:48.725Z,36.80
2022-12-16T18:08:34.013Z,36.75
2022-12-16T18:11:18.796Z,37.80
2022-12-16T18:14:04.163Z,37.58
2022-12-16T18:16:49.362Z,40.28
2022-12-16T18:19:34.890Z,43.55
2022-12-16T18:22:20.593Z,43.63
2022-12-16T18:25:05.657Z,41.75
2022-12-16T18:27:50.631Z,42.35
2022-12-16T18:30:36.072Z,42.28
2022-12-16T18:33:21.190Z,43.35
2022-12-16T18:36:06.207Z,43.17
2022-12-16T18:38:51.169Z,46.30
2022-12-16T18:41:38.395Z,46.78
2022-12-16T18:44:24.360Z,46.67
2022-12-16T18:47:09.451Z,46.33
2022-12-16T18:49:54.634Z,45.85
2022-12-16T18:52:39.332Z,44.45
2022-12-16T18:55:24.876Z,43.92
2022-12-16T18:58:34.795Z,46.65
2022-12-16T19:01:27.098Z,45.90
2022-12-16T19:04:13.293Z,47.10
2022-12-16T19:06:58.417Z,44.63
2022-12-16T19:09:43.321Z,45.60
2022-12-16T19:12:28.245Z,43.08
2022-12-16T19:15:13.230Z,42.22
2022-12-16T19:17:58.277Z,43.22
2022-12-16T19:20:43.841Z,42.35
2022-12-16T19:23:28.959Z,44.10
2022-12-16T19:26:17.868Z,41.80
2022-12-16T19:29:03.928Z,42.55
2022-12-16T19:31:49.066Z,42.65
2022-12-16T19:34:34.024Z,43.47
2022-12-16T19:37:18.938Z,41.25
2022-12-16T19:40:04.033Z,41.03
2022-12-16T19:42:48.920Z,42.83
2022-12-16T19:45:33.927Z,42.95
2022-12-16T19:48:23.784Z,43.95
2022-12-16T19:51:15.647Z,42.45
2022-12-16T19:54:00.750Z,43.83
2022-12-16T19:56:46.516Z,42.97
2022-12-16T19:59:31.226Z,42.53
2022-12-16T20:02:16.156Z,43.20
2022-12-16T20:05:01.321Z,46.10
2022-12-16T20:07:46.229Z,53.15
2022-12-16T20:10:31.189Z,52.25
2022-12-16T20:13:23.832Z,55.83
2022-12-16T20:16:11.955Z,58.80
2022-12-16T20:18:56.799Z,58.75
2022-12-16T20:21:42.296Z,58.95
2022-12-16T20:24:27.771Z,60.08
2022-12-16T20:27:12.827Z,62.30
2022-12-16T20:30:14.445Z,53.03
2022-12-16T20:32:59.721Z,54.95
2022-12-16T20:35:44.710Z,51.38
2022-12-16T20:38:29.604Z,47.20
2022-12-16T20:41:19.847Z,48.97
2022-12-16T20:44:09.931Z,46.97
2022-12-16T20:46:56.142Z,48.58
2022-12-16T20:49:41.829Z,46.95
2022-12-16T20:52:26.849Z,43.95
2022-12-16T20:55:11.714Z,43.75
2022-12-16T20:57:56.673Z,45.67
2022-12-16T21:00:41.957Z,48.90
2022-12-16T21:03:27.623Z,50.13
2022-12-16T21:06:12.600Z,55.70
2022-12-16T21:08:57.521Z,50.17
2022-12-16T21:11:42.805Z,48.05
2022-12-16T21:14:27.905Z,47.78
2022-12-16T21:17:12.806Z,48.28
2022-12-16T21:19:57.761Z,50.80
2022-12-16T21:22:42.852Z,54.17
2022-12-16T21:25:27.573Z,52.35
2022-12-16T21:28:16.375Z,50.67
2022-12-16T21:31:01.548Z,53.55
2022-12-16T21:33:47.107Z,50.30
2022-12-16T21:36:32.109Z,51.17
2022-12-16T21:39:16.985Z,53.47
2022-12-16T21:42:02.022Z,51.60
2022-12-16T21:44:46.795Z,49.85
2022-12-16T21:47:31.751Z,50.08
2022-12-16T21:50:16.932Z,50.50
2022-12-16T21:53:05.158Z,52.47
2022-12-16T21:55:49.902Z,55.13
2022-12-16T21:58:34.742Z,54.20
2022-12-16T22:01:19.697Z,59.10
2022-12-16T22:04:04.831Z,57.92
2022-12-16T22:06:50.107Z,63.55
2022-12-16T22:09:35.405Z,60.50
2022-12-16T22:12:20.747Z,64.00
2022-12-16T22:15:05.863Z,63.83
2022-12-16T22:18:10.522Z,60.40
2022-12-16T22:20:55.601Z,57.78
2022-12-16T22:23:46.505Z,59.75
2022-12-16T22:26:31.581Z,59.13
2022-12-16T22:29:16.923Z,60.15
2022-12-16T22:32:01.932Z,58.47
2022-12-16T22:34:46.625Z,56.03
2022-12-16T22:37:31.341Z,58.72
2022-12-16T22:40:16.295Z,58.38
2022-12-16T22:43:01.041Z,58.28
2022-12-16T22:45:45.838Z,59.72
2022-12-16T22:48:31.074Z,56.22
2022-12-16T22:51:16.111Z,57.78
2022-12-16T22:54:01.145Z,61.05
2022-12-16T22:56:46.213Z,57.78
2022-12-16T22:59:30.967Z,60.90
2022-12-16T23:02:15.755Z,58.95
2022-12-16T23:05:00.906Z,58.42
2022-12-16T23:07:46.037Z,58.70
2022-12-16T23:10:30.980Z,56.35
2022-12-16T23:13:15.629Z,60.63
2022-12-16T23:16:00.663Z,60.08
2022-12-16T23:18:45.695Z,61.13
2022-12-16T23:21:35.036Z,60.72
2022-12-16T23:24:20.001Z,60.13
2022-12-16T23:27:05.023Z,57.15
2022-12-16T23:29:50.192Z,52.03
2022-12-16T23:35:27.423Z,55.85
2022-12-16T23:38:23.346Z,54.83
2022-12-16T23:41:14.844Z,52.25
2022-12-16T23:43:59.590Z,51.70
2022-12-16T23:46:44.478Z,51.00
2022-12-16T23:49:29.522Z,51.22
2022-12-16T23:52:14.432Z,54.65
2022-12-16T23:54:59.630Z,56.15
2022-12-16T23:57:44.385Z,52.63
